Time;durP1;ratioP1;P1;durP2;ratioP2;P2;SDS_P1;SDS_P2;PMS_P1;PMS_P2;Temp;Humidity;BMP_temperature;BMP_pressure;BME280_temperature;BME280_humidity;BME280_pressure;Samples;Min_cycle;Max_cycle;Signal;HPM_P1;HPM_P2
2022/10/24 05:00:09;;;;;;;8.43;2.53;;;17.90;97.20;;;;;;1707927;29;20185;-71
2022/10/24 05:01:00;;;;;;;8.77;2.72;;;17.80;97.20;;;;;;1707697;28;20233;-71
2022/10/24 05:01:53;;;;;;;5.57;2.33;;;17.80;97.20;;;;;;1709874;28;20206;-70
2022/10/24 05:02:44;;;;;;;7.38;2.50;;;17.80;97.20;;;;;;1714131;28;20205;-71
2022/10/24 05:03:35;;;;;;;7.30;3.10;;;17.90;97.20;;;;;;1713534;28;20829;-71
2022/10/24 05:04:26;;;;;;;8.00;2.40;;;17.80;97.20;;;;;;1714348;28;20480;-71
2022/10/24 05:05:18;;;;;;;5.53;2.30;;;17.80;97.20;;;;;;1712369;28;20200;-71
2022/10/24 05:06:09;;;;;;;9.75;2.55;;;17.80;97.20;;;;;;1707355;28;20210;-71
2022/10/24 05:07:01;;;;;;;8.10;2.47;;;17.90;97.20;;;;;;1707660;29;20209;-71
2022/10/24 05:07:52;;;;;;;4.97;2.60;;;17.90;97.20;;;;;;1707508;29;20245;-71
2022/10/24 05:08:43;;;;;;;6.93;2.40;;;17.90;97.20;;;;;;1707530;29;20238;-71
2022/10/24 05:09:34;;;;;;;7.47;2.50;;;17.90;97.20;;;;;;1707652;29;20695;-71
2022/10/24 05:10:26;;;;;;;9.33;2.67;;;17.90;97.20;;;;;;1707056;28;20574;-71
2022/10/24 05:11:17;;;;;;;10.18;2.97;;;17.90;97.20;;;;;;1709355;28;20211;-71
2022/10/24 05:12:08;;;;;;;6.80;2.57;;;17.90;97.20;;;;;;1708691;28;20204;-71
2022/10/24 05:12:59;;;;;;;8.85;2.70;;;17.90;97.20;;;;;;1706349;29;20613;-71
2022/10/24 05:13:51;;;;;;;11.53;2.73;;;17.90;97.20;;;;;;1707330;29;20191;-70
2022/10/24 05:14:45;;;;;;;6.90;2.53;;;17.90;97.20;;;;;;1707386;29;20223;-70
2022/10/24 05:15:39;;;;;;;7.57;3.38;;;17.90;97.20;;;;;;1707474;29;20207;-71
2022/10/24 05:16:30;;;;;;;8.35;2.83;;;17.90;97.20;;;;;;1706749;29;20209;-71
2022/10/24 05:17:21;;;;;;;9.20;2.37;;;17.90;97.20;;;;;;1704891;28;20202;-71
2022/10/24 05:18:12;;;;;;;8.57;2.78;;;17.90;97.20;;;;;;1704967;29;20214;-71
2022/10/24 05:19:04;;;;;;;6.40;2.50;;;17.90;97.20;;;;;;1707414;29;20690;-70
2022/10/24 05:19:55;;;;;;;9.00;3.00;;;17.90;97.20;;;;;;1707608;29;20233;-71
2022/10/24 05:20:46;;;;;;;5.97;2.40;;;17.90;97.20;;;;;;1707469;29;20214;-70
2022/10/24 05:21:37;;;;;;;9.38;2.55;;;17.90;97.20;;;;;;1707377;28;20203;-69
2022/10/24 05:22:29;;;;;;;6.20;2.40;;;17.90;97.20;;;;;;1714433;28;20209;-70
2022/10/24 05:23:19;;;;;;;10.73;2.60;;;17.90;97.20;;;;;;1714298;28;20217;-70
2022/10/24 05:24:11;;;;;;;5.37;2.80;;;17.90;97.20;;;;;;1713866;28;20194;-72
2022/10/24 05:25:03;;;;;;;6.82;2.55;;;17.90;97.20;;;;;;1713854;28;20198;-71
2022/10/24 05:25:55;;;;;;;6.13;2.42;;;17.90;97.20;;;;;;1703923;28;20286;-71
2022/10/24 05:26:46;;;;;;;9.95;2.38;;;17.90;97.20;;;;;;1699355;29;20297;-71
2022/10/24 05:27:37;;;;;;;6.67;2.50;;;17.90;97.20;;;;;;1700670;29;20300;-71
2022/10/24 05:28:28;;;;;;;8.02;2.00;;;17.90;97.20;;;;;;1700771;29;20207;-71
2022/10/24 05:29:20;;;;;;;5.50;2.60;;;17.90;97.20;;;;;;1700864;29;20210;-71
2022/10/24 05:30:11;;;;;;;7.70;2.13;;;17.90;97.20;;;;;;1707562;29;20206;-71
2022/10/24 05:31:05;;;;;;;7.70;2.45;;;17.90;97.20;;;;;;1707289;29;20868;-72
2022/10/24 05:31:55;;;;;;;7.13;2.40;;;17.90;97.20;;;;;;1700525;29;20199;-72
2022/10/24 05:32:47;;;;;;;5.40;2.20;;;18.00;97.20;;;;;;1700690;29;20287;-72
2022/10/24 05:33:38;;;;;;;5.47;1.95;;;18.00;97.20;;;;;;1700834;29;20203;-73
2022/10/24 05:34:30;;;;;;;8.30;2.30;;;18.00;97.20;;;;;;1703004;29;20199;-72
2022/10/24 05:35:20;;;;;;;5.40;2.10;;;18.00;97.20;;;;;;1707809;28;20586;-71
2022/10/24 05:36:12;;;;;;;5.30;2.10;;;18.00;97.20;;;;;;1705023;28;20198;-71
2022/10/24 05:37:03;;;;;;;5.80;2.10;;;18.00;97.20;;;;;;1707400;28;20214;-71
2022/10/24 05:37:55;;;;;;;5.47;2.30;;;18.00;97.20;;;;;;1707083;28;20206;-71
2022/10/24 05:38:45;;;;;;;4.22;2.42;;;18.00;97.20;;;;;;1707753;28;20207;-71
2022/10/24 05:39:37;;;;;;;5.33;2.03;;;18.00;97.20;;;;;;1707886;28;20237;-71
2022/10/24 05:40:28;;;;;;;6.68;2.10;;;18.00;97.20;;;;;;1707729;28;20207;-71
2022/10/24 05:41:19;;;;;;;9.03;2.60;;;18.00;97.20;;;;;;1707780;28;20294;-72
2022/10/24 05:42:11;;;;;;;5.07;1.90;;;18.00;97.20;;;;;;1707806;28;20206;-72
2022/10/24 05:43:02;;;;;;;5.43;2.45;;;18.00;97.20;;;;;;1707653;28;20205;-71
2022/10/24 05:43:53;;;;;;;5.40;1.92;;;18.00;97.20;;;;;;1707773;28;20203;-71
2022/10/24 05:44:45;;;;;;;7.30;2.77;;;18.00;97.20;;;;;;1707069;28;20202;-71
2022/10/24 05:45:36;;;;;;;5.78;1.95;;;18.00;97.20;;;;;;1707795;28;20206;-70
2022/10/24 05:46:29;;;;;;;9.97;2.13;;;18.00;97.20;;;;;;1707486;28;20206;-70
2022/10/24 05:47:19;;;;;;;5.88;1.85;;;18.00;97.20;;;;;;1707735;28;20202;-70
2022/10/24 05:48:11;;;;;;;8.80;2.20;;;18.00;97.20;;;;;;1707706;28;20706;-71
2022/10/24 05:49:02;;;;;;;7.30;2.30;;;17.90;97.20;;;;;;1706042;28;20735;-71
2022/10/24 05:49:53;;;;;;;6.57;2.17;;;17.90;97.20;;;;;;1707752;28;20661;-71
2022/10/24 05:50:44;;;;;;;4.70;2.00;;;17.90;97.20;;;;;;1707702;28;20704;-71
2022/10/24 05:51:36;;;;;;;4.90;1.70;;;17.90;97.20;;;;;;1707706;28;20656;-71
2022/10/24 05:52:27;;;;;;;5.22;2.10;;;17.90;97.20;;;;;;1707502;28;20590;-70
2022/10/24 05:53:18;;;;;;;3.73;2.20;;;17.90;97.20;;;;;;1707543;28;20646;-70
2022/10/24 05:54:09;;;;;;;4.85;2.47;;;17.90;97.20;;;;;;1707220;28;20445;-70
2022/10/24 05:55:01;;;;;;;6.03;2.30;;;17.90;97.20;;;;;;1707692;28;20230;-71
2022/10/24 05:55:52;;;;;;;6.30;2.05;;;17.90;97.20;;;;;;1707650;28;20206;-71
2022/10/24 05:56:43;;;;;;;7.40;2.23;;;17.90;97.20;;;;;;1707385;28;20203;-71
2022/10/24 05:57:35;;;;;;;6.53;1.75;;;17.90;97.20;;;;;;1707518;28;20206;-71
2022/10/24 05:58:27;;;;;;;5.55;2.03;;;17.90;97.20;;;;;;1707706;29;20213;-72
2022/10/24 05:59:17;;;;;;;9.70;2.35;;;17.90;97.20;;;;;;1707690;28;20571;-72
2022/10/24 06:00:13;;;;;;;6.30;1.93;;;17.90;97.20;;;;;;1707656;28;20232;-72
2022/10/24 06:01:04;;;;;;;4.65;2.03;;;17.80;97.20;;;;;;1707658;28;20214;-72
2022/10/24 06:02:00;;;;;;;5.60;2.00;;;17.80;97.20;;;;;;1699592;28;20203;-72
2022/10/24 06:02:52;;;;;;;6.32;1.88;;;17.80;97.20;;;;;;1698732;29;20475;-71
2022/10/24 06:03:45;;;;;;;7.47;2.10;;;17.80;97.20;;;;;;1697732;29;20195;-72
2022/10/24 06:04:36;;;;;;;6.60;1.98;;;17.80;97.20;;;;;;1694523;29;20478;-71
2022/10/24 06:05:28;;;;;;;3.45;1.98;;;17.80;97.20;;;;;;1697313;29;20235;-72
2022/10/24 06:06:19;;;;;;;9.32;2.50;;;17.80;97.20;;;;;;1700807;29;20234;-72
2022/10/24 06:07:10;;;;;;;5.03;2.77;;;17.80;97.20;;;;;;1700946;29;20289;-72
2022/10/24 06:08:01;;;;;;;6.28;2.15;;;17.80;97.20;;;;;;1700921;29;20199;-72
2022/10/24 06:08:53;;;;;;;9.10;2.90;;;17.80;97.20;;;;;;1701031;29;20206;-72
2022/10/24 06:09:44;;;;;;;4.80;1.85;;;17.80;97.20;;;;;;1701131;29;20214;-72
2022/10/24 06:10:36;;;;;;;6.27;2.23;;;17.80;97.20;;;;;;1701041;29;20226;-71
2022/10/24 06:11:27;;;;;;;6.03;2.22;;;17.80;97.20;;;;;;1700925;29;20210;-71
2022/10/24 06:12:18;;;;;;;4.97;2.03;;;17.80;97.20;;;;;;1700993;29;20207;-72
2022/10/24 06:13:09;;;;;;;6.32;1.90;;;17.80;97.20;;;;;;1700531;29;20214;-72
2022/10/24 06:14:02;;;;;;;6.03;2.10;;;17.80;97.20;;;;;;1695254;29;20206;-72
2022/10/24 06:14:55;;;;;;;7.43;2.95;;;17.80;97.20;;;;;;1694376;29;20200;-71
2022/10/24 06:15:47;;;;;;;3.22;1.75;;;17.80;97.20;;;;;;1694429;29;20204;-72
2022/10/24 06:16:37;;;;;;;4.47;2.10;;;17.80;97.20;;;;;;1694261;29;20674;-72
2022/10/24 06:17:31;;;;;;;5.33;2.17;;;17.80;97.20;;;;;;1694321;29;20573;-71
2022/10/24 06:18:21;;;;;;;7.82;2.40;;;17.70;97.20;;;;;;1694502;29;20619;-72
2022/10/24 06:19:13;;;;;;;5.13;2.30;;;17.70;97.20;;;;;;1694441;29;20283;-74
2022/10/24 06:20:04;;;;;;;4.97;1.75;;;17.70;97.20;;;;;;1694443;29;20204;-72
2022/10/24 06:21:00;;;;;;;5.57;1.98;;;17.70;97.20;;;;;;1694472;29;20216;-73
2022/10/24 06:21:50;;;;;;;4.97;2.10;;;17.70;97.20;;;;;;1702956;29;20202;-72
2022/10/24 06:22:44;;;;;;;6.20;2.20;;;17.60;97.20;;;;;;1701776;28;20201;-73
2022/10/24 06:23:35;;;;;;;6.00;2.20;;;17.60;97.20;;;;;;1702291;29;20203;-72
2022/10/24 06:24:26;;;;;;;4.55;2.33;;;17.60;97.20;;;;;;1707448;28;20204;-72
2022/10/24 06:25:18;;;;;;;6.47;2.28;;;17.60;97.20;;;;;;1707609;28;20209;-72
2022/10/24 06:26:10;;;;;;;4.97;1.85;;;17.60;97.20;;;;;;1707229;29;20222;-72
2022/10/24 06:27:01;;;;;;;7.38;2.25;;;17.60;97.20;;;;;;1707363;28;20202;-72
2022/10/24 06:27:52;;;;;;;5.57;1.90;;;17.50;97.20;;;;;;1707314;28;20207;-71
2022/10/24 06:28:44;;;;;;;7.00;2.00;;;17.50;97.20;;;;;;1707521;28;20199;-71
2022/10/24 06:29:35;;;;;;;6.03;2.42;;;17.50;97.20;;;;;;1707590;28;20283;-72
2022/10/24 06:30:27;;;;;;;8.97;2.20;;;17.50;97.20;;;;;;1704297;28;20203;-71
2022/10/24 06:31:19;;;;;;;6.90;2.40;;;17.40;97.20;;;;;;1700880;29;20454;-71
2022/10/24 06:32:11;;;;;;;6.97;2.53;;;17.40;97.20;;;;;;1700869;29;20211;-71
2022/10/24 06:33:03;;;;;;;6.88;2.63;;;17.40;97.20;;;;;;1700892;29;20203;-70
2022/10/24 06:33:55;;;;;;;4.47;1.88;;;17.40;97.20;;;;;;1700873;29;20242;-71
2022/10/24 06:34:45;;;;;;;3.65;1.70;;;17.40;97.20;;;;;;1700858;29;20673;-71
2022/10/24 06:35:37;;;;;;;5.47;2.10;;;17.30;97.20;;;;;;1700939;29;20586;-71
2022/10/24 06:36:28;;;;;;;6.82;2.58;;;17.30;97.20;;;;;;1699968;29;20591;-71
2022/10/24 06:37:19;;;;;;;8.73;2.20;;;17.30;97.20;;;;;;1701357;29;20214;-70
2022/10/24 06:38:10;;;;;;;7.93;2.20;;;17.30;97.20;;;;;;1700839;29;20211;-70
2022/10/24 06:39:02;;;;;;;5.90;2.50;;;17.30;97.20;;;;;;1700895;29;20282;-71
2022/10/24 06:39:53;;;;;;;5.75;2.00;;;17.30;97.20;;;;;;1700894;29;20226;-72
2022/10/24 06:40:44;;;;;;;5.93;2.90;;;17.30;97.20;;;;;;1700793;29;20219;-72
2022/10/24 06:41:35;;;;;;;6.03;2.00;;;17.30;97.20;;;;;;1700920;29;20693;-71
2022/10/24 06:42:27;;;;;;;4.03;2.53;;;17.30;97.20;;;;;;1700881;29;20710;-71
2022/10/24 06:43:18;;;;;;;8.15;2.70;;;17.30;97.20;;;;;;1700793;29;20211;-71
2022/10/24 06:44:10;;;;;;;4.45;2.10;;;17.30;97.20;;;;;;1700830;29;20262;-72
2022/10/24 06:45:01;;;;;;;7.65;2.30;;;17.30;97.20;;;;;;1700843;29;20219;-72
2022/10/24 06:45:54;;;;;;;5.77;2.10;;;17.30;97.20;;;;;;1700801;29;20290;-73
2022/10/24 06:46:45;;;;;;;7.85;2.40;;;17.30;97.20;;;;;;1700492;29;20203;-73
2022/10/24 06:47:36;;;;;;;9.17;2.30;;;17.40;97.20;;;;;;1701536;29;20254;-73
2022/10/24 06:48:29;;;;;;;6.72;2.42;;;17.40;97.20;;;;;;1700729;29;20461;-73
2022/10/24 06:49:20;;;;;;;5.80;2.35;;;17.40;97.20;;;;;;1700882;29;20214;-73
2022/10/24 06:50:11;;;;;;;5.95;2.15;;;17.40;97.20;;;;;;1700707;29;20207;-73
2022/10/24 06:51:03;;;;;;;6.57;2.07;;;17.40;97.20;;;;;;1700496;29;20199;-72
2022/10/24 06:51:54;;;;;;;6.53;2.45;;;17.40;97.20;;;;;;1698518;29;20218;-71
2022/10/24 06:52:45;;;;;;;5.43;2.00;;;17.40;97.20;;;;;;1700277;29;20195;-71
2022/10/24 06:53:36;;;;;;;8.45;2.30;;;17.40;97.20;;;;;;1700484;29;20688;-72
2022/10/24 06:54:28;;;;;;;4.57;1.80;;;17.40;97.20;;;;;;1701111;28;20632;-72
2022/10/24 06:55:19;;;;;;;12.65;2.22;;;17.40;97.20;;;;;;1700059;29;20258;-72
2022/10/24 06:56:11;;;;;;;9.20;2.53;;;17.40;97.20;;;;;;1700143;29;20210;-72
2022/10/24 06:57:02;;;;;;;4.40;2.35;;;17.50;97.20;;;;;;1700210;29;20942;-72
2022/10/24 06:57:54;;;;;;;5.90;1.93;;;17.50;97.20;;;;;;1700519;29;20270;-72
2022/10/24 06:58:46;;;;;;;5.65;2.65;;;17.50;97.20;;;;;;1700688;29;20450;-72
2022/10/24 06:59:38;;;;;;;4.93;1.90;;;17.50;97.20;;;;;;1700643;29;21531;-72
2022/10/24 07:00:30;;;;;;;6.88;2.25;;;17.50;97.20;;;;;;1700530;29;20214;-71
2022/10/24 07:01:24;;;;;;;8.80;2.38;;;17.50;97.20;;;;;;1699035;29;20202;-71
2022/10/24 07:02:15;;;;;;;5.95;2.00;;;17.50;97.20;;;;;;1700037;29;20712;-72
2022/10/24 07:03:07;;;;;;;6.15;2.03;;;17.50;97.20;;;;;;1699669;29;20725;-72
2022/10/24 07:03:59;;;;;;;5.10;2.47;;;17.50;97.20;;;;;;1699893;29;20203;-72
2022/10/24 07:04:51;;;;;;;4.68;2.42;;;17.50;97.20;;;;;;1700531;29;20206;-72
2022/10/24 07:05:42;;;;;;;7.88;2.28;;;17.50;97.20;;;;;;1700257;29;20200;-72
2022/10/24 07:06:34;;;;;;;7.20;2.03;;;17.50;97.20;;;;;;1699329;29;20290;-71
2022/10/24 07:07:25;;;;;;;10.60;2.58;;;17.50;97.20;;;;;;1699730;29;20207;-71
2022/10/24 07:08:16;;;;;;;5.80;2.40;;;17.50;97.20;;;;;;1699939;29;20303;-71
2022/10/24 07:09:07;;;;;;;6.03;2.25;;;17.50;97.20;;;;;;1704604;29;20453;-72
2022/10/24 07:09:59;;;;;;;4.80;2.17;;;17.50;97.20;;;;;;1706522;28;20289;-72
2022/10/24 07:10:50;;;;;;;3.95;2.05;;;17.50;97.20;;;;;;1706476;28;20466;-71
2022/10/24 07:11:41;;;;;;;5.17;2.50;;;17.50;97.20;;;;;;1706522;28;20705;-71
2022/10/24 07:12:32;;;;;;;6.35;2.22;;;17.60;97.20;;;;;;1706551;28;20218;-72
2022/10/24 07:13:24;;;;;;;6.97;2.50;;;17.60;97.20;;;;;;1701844;28;20226;-72
2022/10/24 07:14:15;;;;;;;4.80;1.88;;;17.60;97.20;;;;;;1700584;29;20203;-72
2022/10/24 07:15:07;;;;;;;3.53;2.00;;;17.60;97.20;;;;;;1700444;29;20209;-72
2022/10/24 07:15:58;;;;;;;5.93;2.58;;;17.60;97.20;;;;;;1700548;29;20207;-72
2022/10/24 07:16:50;;;;;;;5.67;2.27;;;17.60;97.20;;;;;;1700006;29;20207;-72
2022/10/24 07:17:42;;;;;;;6.30;1.75;;;17.60;97.20;;;;;;1700440;29;20447;-72
2022/10/24 07:18:34;;;;;;;5.57;2.20;;;17.60;97.20;;;;;;1700602;29;20209;-72
2022/10/24 07:19:26;;;;;;;8.93;2.75;;;17.60;97.20;;;;;;1700547;29;20203;-72
2022/10/24 07:20:18;;;;;;;5.97;2.42;;;17.60;97.20;;;;;;1700491;29;20207;-72
2022/10/24 07:21:13;;;;;;;5.72;2.70;;;17.60;97.20;;;;;;1700564;29;20218;-71
2022/10/24 07:22:05;;;;;;;6.25;2.28;;;17.60;97.20;;;;;;1700584;29;20210;-72
2022/10/24 07:22:56;;;;;;;7.30;2.40;;;17.60;97.20;;;;;;1700487;29;20210;-71
2022/10/24 07:23:48;;;;;;;6.40;2.27;;;17.60;97.20;;;;;;1700545;29;20286;-71
2022/10/24 07:24:40;;;;;;;6.53;2.60;;;17.70;97.20;;;;;;1700488;29;20203;-72
2022/10/24 07:25:30;;;;;;;4.63;2.08;;;17.70;97.20;;;;;;1700489;29;20210;-72
2022/10/24 07:26:24;;;;;;;5.93;2.07;;;17.70;97.20;;;;;;1701155;29;20227;-72
2022/10/24 07:27:15;;;;;;;4.97;2.45;;;17.70;97.20;;;;;;1700287;29;20223;-72
2022/10/24 07:28:08;;;;;;;9.20;2.90;;;17.70;97.20;;;;;;1700451;29;20213;-72
2022/10/24 07:29:00;;;;;;;6.47;2.40;;;17.70;97.20;;;;;;1700529;29;20858;-72
2022/10/24 07:29:52;;;;;;;5.18;2.53;;;17.70;97.20;;;;;;1700661;29;20617;-71
2022/10/24 07:30:43;;;;;;;5.30;2.25;;;17.70;97.20;;;;;;1700349;29;20230;-72
2022/10/24 07:31:35;;;;;;;7.63;2.47;;;17.70;97.20;;;;;;1700464;29;20219;-71
2022/10/24 07:32:26;;;;;;;7.22;2.13;;;17.80;97.20;;;;;;1700651;29;20218;-72
2022/10/24 07:33:18;;;;;;;5.20;3.17;;;17.70;97.20;;;;;;1700532;29;20245;-72
2022/10/24 07:34:09;;;;;;;8.35;4.47;;;17.80;97.20;;;;;;1700036;29;20218;-72
2022/10/24 07:35:02;;;;;;;6.53;3.50;;;17.80;97.20;;;;;;1700500;29;20226;-72
2022/10/24 07:35:54;;;;;;;6.22;3.65;;;17.80;97.20;;;;;;1700889;29;20230;-71
2022/10/24 07:36:45;;;;;;;6.75;2.75;;;17.80;97.20;;;;;;1700052;29;20203;-71
2022/10/24 07:37:36;;;;;;;4.90;2.33;;;17.80;97.20;;;;;;1700347;29;20207;-71
2022/10/24 07:38:28;;;;;;;6.03;2.20;;;17.70;97.20;;;;;;1700531;29;20298;-71
2022/10/24 07:39:19;;;;;;;4.60;2.08;;;17.70;97.20;;;;;;1700429;29;20589;-71
2022/10/24 07:40:12;;;;;;;5.13;2.33;;;17.70;97.20;;;;;;1700479;29;20749;-71
2022/10/24 07:41:03;;;;;;;4.40;2.10;;;17.70;97.20;;;;;;1700525;29;20207;-72
2022/10/24 07:41:55;;;;;;;4.22;2.50;;;17.70;97.20;;;;;;1700493;29;20661;-72
2022/10/24 07:42:47;;;;;;;9.57;3.00;;;17.70;97.20;;;;;;1700135;29;20226;-71
2022/10/24 07:43:39;;;;;;;5.20;2.60;;;17.70;97.20;;;;;;1700445;29;20227;-72
2022/10/24 07:44:30;;;;;;;6.15;2.70;;;17.70;97.20;;;;;;1700500;29;20219;-72
2022/10/24 07:45:22;;;;;;;4.80;2.10;;;17.60;97.20;;;;;;1700511;29;20211;-72
2022/10/24 07:46:15;;;;;;;8.85;3.28;;;17.60;97.20;;;;;;1700065;29;20447;-71
2022/10/24 07:47:08;;;;;;;6.75;2.28;;;17.60;97.20;;;;;;1700223;29;20207;-72
2022/10/24 07:47:59;;;;;;;7.90;2.30;;;17.60;97.20;;;;;;1700401;29;20214;-72
2022/10/24 07:48:52;;;;;;;5.90;2.37;;;17.60;97.20;;;;;;1700546;29;20203;-71
2022/10/24 07:49:42;;;;;;;4.75;2.13;;;17.60;97.20;;;;;;1700473;29;20451;-71
2022/10/24 07:50:42;;;;;;;4.70;2.57;;;17.60;97.20;;;;;;1700307;29;20298;-72
2022/10/24 07:51:33;;;;;;;6.25;2.53;;;17.50;97.20;;;;;;1700513;29;20211;-72
2022/10/24 07:52:24;;;;;;;6.38;2.05;;;17.50;97.20;;;;;;1700455;29;20211;-72
2022/10/24 07:53:16;;;;;;;5.93;1.83;;;17.50;97.20;;;;;;1700587;29;20204;-72
2022/10/24 07:54:07;;;;;;;3.45;1.70;;;17.50;97.20;;;;;;1700485;29;20459;-72
2022/10/24 07:54:59;;;;;;;6.40;2.30;;;17.40;97.20;;;;;;1700465;29;20286;-72
2022/10/24 07:55:49;;;;;;;6.15;2.35;;;17.40;97.20;;;;;;1700358;29;20487;-72
2022/10/24 07:56:41;;;;;;;5.60;2.40;;;17.40;97.20;;;;;;1699859;29;20203;-72
2022/10/24 07:57:32;;;;;;;4.32;2.50;;;17.40;97.20;;;;;;1700267;29;20203;-72
2022/10/24 07:58:24;;;;;;;4.00;1.87;;;17.30;97.20;;;;;;1700509;29;20684;-72
2022/10/24 07:59:14;;;;;;;8.82;3.15;;;17.30;97.20;;;;;;1700523;29;20692;-72
2022/10/24 08:00:08;;;;;;;9.40;2.93;;;17.30;97.20;;;;;;1701427;29;20249;-72
2022/10/24 08:01:02;;;;;;;4.57;1.80;;;17.30;97.20;;;;;;1700445;29;20599;-72
2022/10/24 08:01:54;;;;;;;3.75;2.15;;;17.20;97.20;;;;;;1700477;29;20255;-72
2022/10/24 08:02:45;;;;;;;10.48;2.30;;;17.20;97.20;;;;;;1704546;29;20571;-72
2022/10/24 08:03:37;;;;;;;7.47;2.60;;;17.20;97.20;;;;;;1707057;28;20293;-72
2022/10/24 08:04:29;;;;;;;9.15;2.58;;;17.20;97.20;;;;;;1707003;28;20207;-72
2022/10/24 08:05:20;;;;;;;6.18;2.45;;;17.20;97.20;;;;;;1707089;28;20206;-72
2022/10/24 08:06:16;;;;;;;6.82;2.10;;;17.10;97.20;;;;;;1706568;28;20203;-72
2022/10/24 08:07:11;;;;;;;6.18;2.47;;;17.10;97.20;;;;;;1706811;28;20214;-72
2022/10/24 08:08:02;;;;;;;7.88;2.60;;;17.10;97.20;;;;;;1706978;28;20333;-72
2022/10/24 08:08:54;;;;;;;7.60;2.57;;;17.10;97.20;;;;;;1707000;29;20253;-72
2022/10/24 08:09:46;;;;;;;2.90;2.30;;;17.10;97.20;;;;;;1706938;28;20437;-72
2022/10/24 08:10:38;;;;;;;6.28;2.70;;;17.00;97.20;;;;;;1707084;28;20226;-72
2022/10/24 08:11:31;;;;;;;7.15;2.00;;;17.00;97.20;;;;;;1706944;28;20207;-72
2022/10/24 08:12:23;;;;;;;5.63;2.00;;;17.00;97.20;;;;;;1707122;28;20988;-72
2022/10/24 08:13:13;;;;;;;5.53;2.40;;;17.00;97.20;;;;;;1707027;28;20206;-72
2022/10/24 08:14:05;;;;;;;5.73;2.00;;;17.00;97.20;;;;;;1707097;28;20202;-72
2022/10/24 08:14:56;;;;;;;5.60;2.20;;;16.90;97.20;;;;;;1705811;28;20210;-72
2022/10/24 08:15:48;;;;;;;5.07;2.70;;;16.90;97.20;;;;;;1700360;29;20704;-72
2022/10/24 08:16:41;;;;;;;7.15;2.95;;;16.90;97.20;;;;;;1699763;29;20560;-72
2022/10/24 08:17:32;;;;;;;3.65;2.08;;;16.90;97.20;;;;;;1701463;29;20207;-72
2022/10/24 08:18:23;;;;;;;6.70;2.17;;;16.80;97.20;;;;;;1701585;29;20207;-72
2022/10/24 08:19:15;;;;;;;5.57;2.20;;;16.80;97.20;;;;;;1701620;29;20213;-72
2022/10/24 08:20:07;;;;;;;5.40;2.50;;;16.80;97.20;;;;;;1701563;29;20211;-72
2022/10/24 08:21:01;;;;;;;9.80;1.98;;;16.80;97.20;;;;;;1701570;29;20215;-72
2022/10/24 08:21:53;;;;;;;5.35;2.40;;;16.80;97.20;;;;;;1701558;29;20231;-72
2022/10/24 08:22:45;;;;;;;7.22;2.47;;;16.80;97.20;;;;;;1701591;29;20229;-72
2022/10/24 08:23:38;;;;;;;2.95;1.90;;;16.80;97.20;;;;;;1701624;29;20211;-72
2022/10/24 08:24:30;;;;;;;5.93;2.33;;;16.70;97.20;;;;;;1701547;29;20691;-72
2022/10/24 08:25:21;;;;;;;5.18;2.03;;;16.70;97.20;;;;;;1701578;29;20207;-72
2022/10/24 08:26:14;;;;;;;5.97;2.03;;;16.70;97.20;;;;;;1701015;29;20191;-72
2022/10/24 08:27:05;;;;;;;5.30;2.33;;;16.70;97.20;;;;;;1701360;29;20214;-72
2022/10/24 08:27:57;;;;;;;8.87;2.60;;;16.70;97.20;;;;;;1701406;29;20700;-72
2022/10/24 08:28:48;;;;;;;11.55;2.92;;;16.70;97.20;;;;;;1701485;29;20287;-72
2022/10/24 08:29:40;;;;;;;8.05;2.78;;;16.70;97.20;;;;;;1701621;29;20243;-72
2022/10/24 08:30:31;;;;;;;9.73;2.08;;;16.60;97.20;;;;;;1701405;29;20203;-72
2022/10/24 08:31:24;;;;;;;4.80;2.30;;;16.60;97.20;;;;;;1701428;29;20294;-72
2022/10/24 08:32:18;;;;;;;5.88;2.17;;;16.60;97.20;;;;;;1706521;29;20199;-72
2022/10/24 08:33:09;;;;;;;7.07;2.28;;;16.70;97.20;;;;;;1708082;28;20234;-72
2022/10/24 08:34:00;;;;;;;4.80;2.05;;;16.70;97.20;;;;;;1708094;28;20586;-72
2022/10/24 08:34:52;;;;;;;6.13;2.10;;;16.60;97.20;;;;;;1708135;28;20222;-72
2022/10/24 08:35:43;;;;;;;5.85;2.20;;;16.70;97.20;;;;;;1708027;28;20695;-72
2022/10/24 08:36:35;;;;;;;4.53;2.10;;;16.70;97.20;;;;;;1707597;28;20848;-72
2022/10/24 08:37:27;;;;;;;8.25;2.40;;;16.70;97.20;;;;;;1704032;28;20591;-72
2022/10/24 08:38:19;;;;;;;3.53;1.85;;;16.70;97.20;;;;;;1701524;29;20207;-72
2022/10/24 08:39:11;;;;;;;11.52;2.50;;;16.70;97.20;;;;;;1701413;29;20203;-72
2022/10/24 08:40:05;;;;;;;8.88;2.50;;;16.70;97.20;;;;;;1701451;29;20269;-72
2022/10/24 08:40:58;;;;;;;3.10;1.90;;;16.70;97.20;;;;;;1701461;29;20243;-72
2022/10/24 08:41:53;;;;;;;6.75;2.35;;;16.70;97.20;;;;;;1701461;29;20203;-72
2022/10/24 08:42:46;;;;;;;5.70;2.28;;;16.70;97.20;;;;;;1700447;29;20199;-72
2022/10/24 08:43:37;;;;;;;6.72;2.30;;;16.70;97.20;;;;;;1701515;29;20210;-72
2022/10/24 08:44:33;;;;;;;5.00;2.87;;;16.70;97.20;;;;;;1701413;29;20203;-72
2022/10/24 08:45:28;;;;;;;6.72;2.75;;;16.80;97.20;;;;;;1701439;29;20222;-72
2022/10/24 08:46:36;;;;;;;6.05;2.25;;;16.80;97.20;;;;;;1701073;29;20230;-72
2022/10/24 08:47:33;;;;;;;5.13;2.35;;;16.80;97.20;;;;;;1694662;29;20255;-72
2022/10/24 08:48:30;;;;;;;5.97;2.65;;;16.80;97.20;;;;;;1694913;29;20223;-72
2022/10/24 08:49:30;;;;;;;9.02;2.65;;;16.80;97.20;;;;;;1694942;29;20256;-72
2022/10/24 08:50:26;;;;;;;10.27;2.67;;;16.80;97.20;;;;;;1694947;29;20717;-72
2022/10/24 08:51:24;;;;;;;4.43;2.60;;;16.80;97.20;;;;;;1694856;29;20216;-72
2022/10/24 08:52:23;;;;;;;4.63;2.42;;;16.80;97.20;;;;;;1694923;29;20208;-72
2022/10/24 08:53:21;;;;;;;7.93;2.38;;;16.80;97.20;;;;;;1694862;29;20208;-72
2022/10/24 08:54:18;;;;;;;11.55;3.08;;;16.80;97.20;;;;;;1694907;29;20215;-72
2022/10/24 08:55:13;;;;;;;6.75;2.40;;;16.80;97.20;;;;;;1694893;29;20204;-72
2022/10/24 08:56:09;;;;;;;5.20;2.63;;;16.80;97.20;;;;;;1694823;29;20196;-72
2022/10/24 08:57:01;;;;;;;7.60;2.70;;;16.80;97.20;;;;;;1694642;29;20207;-72
2022/10/24 08:57:57;;;;;;;7.85;2.80;;;16.80;97.20;;;;;;1694753;29;20208;-72
2022/10/24 08:58:50;;;;;;;5.05;2.42;;;16.80;97.20;;;;;;1694824;29;20211;-72
2022/10/24 08:59:42;;;;;;;4.25;2.47;;;16.80;97.20;;;;;;1694803;29;20620;-72
2022/10/24 09:00:40;;;;;;;5.20;2.05;;;16.80;97.20;;;;;;1694799;29;20232;-72
2022/10/24 09:01:39;;;;;;;3.15;1.77;;;16.80;97.20;;;;;;1694829;29;20200;-72
2022/10/24 09:02:34;;;;;;;5.95;2.00;;;16.80;97.20;;;;;;1694777;29;20219;-72
2022/10/24 09:03:32;;;;;;;10.77;2.40;;;16.80;97.20;;;;;;1694786;29;20255;-72
2022/10/24 09:04:25;;;;;;;5.78;2.10;;;16.80;97.20;;;;;;1694853;29;20220;-72
2022/10/24 09:05:23;;;;;;;6.40;2.85;;;16.80;97.20;;;;;;1694891;29;20208;-72
2022/10/24 09:06:17;;;;;;;8.52;2.60;;;16.80;97.20;;;;;;1694380;29;20685;-72
2022/10/24 09:07:15;;;;;;;9.35;2.85;;;16.80;97.20;;;;;;1694526;29;20207;-72
2022/10/24 09:08:24;;;;;;;6.25;2.50;;;16.80;97.20;;;;;;1695918;29;20911;-72
2022/10/24 09:09:19;;;;;;;6.30;2.25;;;16.80;97.20;;;;;;1694854;29;20726;-72
2022/10/24 09:10:16;;;;;;;7.25;2.20;;;16.80;97.20;;;;;;1694751;29;20214;-72
2022/10/24 09:11:14;;;;;;;3.72;2.33;;;16.80;97.20;;;;;;1694740;29;20227;-72
2022/10/24 09:12:11;;;;;;;6.53;2.25;;;16.80;97.20;;;;;;1694750;29;20207;-72
2022/10/24 09:13:01;;;;;;;8.93;2.58;;;16.80;97.20;;;;;;1694790;29;20224;-72
2022/10/24 09:13:54;;;;;;;6.63;2.30;;;16.80;97.20;;;;;;1694731;29;20239;-72
2022/10/24 09:14:48;;;;;;;10.07;2.92;;;16.80;97.20;;;;;;1694695;29;20204;-72
2022/10/24 09:15:42;;;;;;;6.65;2.20;;;16.80;97.20;;;;;;1694839;29;20207;-72
2022/10/24 09:16:34;;;;;;;7.32;2.97;;;16.80;97.20;;;;;;1694039;29;20228;-72
2022/10/24 09:17:31;;;;;;;6.63;2.60;;;16.80;97.20;;;;;;1694547;29;20207;-72
2022/10/24 09:18:25;;;;;;;4.45;2.15;;;16.80;97.20;;;;;;1694713;29;20208;-72
2022/10/24 09:19:21;;;;;;;5.10;2.10;;;16.80;97.20;;;;;;1694771;29;20204;-72
2022/10/24 09:20:24;;;;;;;6.80;2.90;;;16.80;97.20;;;;;;1694690;29;20693;-72
2022/10/24 09:21:17;;;;;;;3.83;2.88;;;16.80;97.20;;;;;;1694689;29;20266;-72
2022/10/24 09:22:11;;;;;;;8.02;2.25;;;16.80;97.20;;;;;;1694672;29;20211;-72
2022/10/24 09:23:05;;;;;;;14.10;2.60;;;16.80;97.20;;;;;;1694684;29;20212;-72
2022/10/24 09:23:58;;;;;;;5.40;2.17;;;16.80;97.20;;;;;;1694628;29;20207;-72
2022/10/24 09:24:53;;;;;;;3.83;2.17;;;16.80;97.20;;;;;;1694632;29;20208;-71
2022/10/24 09:25:49;;;;;;;8.60;2.60;;;16.80;97.20;;;;;;1698311;29;20696;-72
2022/10/24 09:26:39;;;;;;;8.65;2.80;;;16.90;97.20;;;;;;1700487;29;20203;-72
2022/10/24 09:27:34;;;;;;;5.57;2.10;;;16.90;97.20;;;;;;1701012;29;20290;-72
2022/10/24 09:28:25;;;;;;;5.80;2.40;;;16.90;97.20;;;;;;1700421;29;20666;-72
2022/10/24 09:29:17;;;;;;;5.97;2.30;;;16.90;97.20;;;;;;1700933;29;20631;-72
2022/10/24 09:30:16;;;;;;;4.70;2.50;;;16.90;97.20;;;;;;1701075;29;20451;-71
2022/10/24 09:31:15;;;;;;;5.05;2.63;;;16.90;97.20;;;;;;1701092;29;20211;-71
2022/10/24 09:32:15;;;;;;;8.30;2.75;;;16.90;97.20;;;;;;1701149;28;20207;-72